createdAt,value
2023-01-23T00:00:20.710Z,103642.09
2023-01-23T00:02:53.226Z,103642.81
2023-01-23T00:05:25.359Z,103646.28
2023-01-23T00:07:57.884Z,103655.16
2023-01-23T00:10:29.894Z,103652.66
2023-01-23T00:13:01.923Z,103650.19
2023-01-23T00:15:33.959Z,103656.25
2023-01-23T00:18:06.082Z,103653.75
2023-01-23T00:20:41.320Z,103655.66
2023-01-23T00:23:15.253Z,103655.66
2023-01-23T00:25:47.375Z,103660.75
2023-01-23T00:28:19.472Z,103658.25
2023-01-23T00:30:51.570Z,103653.88
2023-01-23T00:33:23.616Z,103656.34
2023-01-23T00:35:55.904Z,103655.47
2023-01-23T00:38:28.271Z,103652.78
2023-01-23T00:41:00.410Z,103651.19
2023-01-23T00:43:32.877Z,103656.16
2023-01-23T00:46:05.423Z,103654.16
2023-01-23T00:48:37.492Z,103651.47
2023-01-23T00:51:10.716Z,103661.25
2023-01-23T00:53:43.241Z,103658.84
2023-01-23T00:56:15.546Z,103656.16
2023-01-23T00:59:01.625Z,103666.31
2023-01-23T01:01:33.895Z,103658.44
2023-01-23T01:04:32.499Z,103667.91
2023-01-23T01:07:04.733Z,103669.81
2023-01-23T01:09:36.796Z,103670.59
2023-01-23T01:12:09.056Z,103680.47
2023-01-23T01:14:41.135Z,103691.22
2023-01-23T01:17:13.123Z,103687.94
2023-01-23T01:20:05.961Z,103694.69
2023-01-23T01:22:37.915Z,103691.22
2023-01-23T01:25:12.333Z,103694.81
2023-01-23T01:27:44.656Z,103698.28
2023-01-23T01:30:20.113Z,103695.69
2023-01-23T01:32:55.165Z,103701.88
2023-01-23T01:35:27.117Z,103711.84
2023-01-23T01:38:00.027Z,103709.91
2023-01-23T01:40:37.348Z,103711.50
2023-01-23T01:43:23.428Z,103714.56
2023-01-23T01:46:16.130Z,103714.69
2023-01-23T01:49:02.654Z,103720.84
2023-01-23T01:51:53.305Z,103721.06
2023-01-23T01:54:37.600Z,103719.97
2023-01-23T01:57:25.316Z,103716.56
2023-01-23T02:00:04.602Z,103711.41
2023-01-23T02:03:01.448Z,103710.59
2023-01-23T02:05:44.357Z,103707.81
2023-01-23T02:08:21.893Z,103700.63
2023-01-23T02:10:54.092Z,103691.56
2023-01-23T02:13:38.924Z,103692.75
2023-01-23T02:16:18.691Z,103692.56
2023-01-23T02:18:57.660Z,103696.53
2023-01-23T02:21:30.132Z,103697.13
2023-01-23T02:24:28.978Z,103692.16
2023-01-23T02:27:01.063Z,103699.81
2023-01-23T02:29:48.401Z,103704.41
2023-01-23T02:32:22.146Z,103706.09
2023-01-23T02:34:57.934Z,103702.81
2023-01-23T02:37:34.566Z,103700.22
2023-01-23T02:40:07.860Z,103700.13
2023-01-23T02:42:44.952Z,103699.22
2023-01-23T02:45:16.924Z,103699.34
2023-01-23T02:47:49.014Z,103695.84
2023-01-23T02:50:59.654Z,103704.63
2023-01-23T02:53:31.734Z,103701.03
2023-01-23T02:56:03.972Z,103702.22
2023-01-23T02:58:57.261Z,103710.78
2023-01-23T03:01:31.478Z,103709.00
2023-01-23T03:04:06.542Z,103705.59
2023-01-23T03:06:38.651Z,103712.00
2023-01-23T03:09:14.686Z,103715.38
2023-01-23T03:11:49.352Z,103710.41
2023-01-23T03:14:27.735Z,103719.06
2023-01-23T03:16:59.876Z,103724.03
2023-01-23T03:19:31.986Z,103715.28
2023-01-23T03:22:04.135Z,103718.84
2023-01-23T03:24:36.130Z,103712.88
2023-01-23T03:27:08.541Z,103711.41
2023-01-23T03:29:58.919Z,103715.47
2023-01-23T03:32:30.927Z,103711.00
2023-01-23T03:35:02.914Z,103710.09
2023-01-23T03:37:35.013Z,103707.72
2023-01-23T03:40:27.036Z,103717.06
2023-01-23T03:42:59.063Z,103713.78
2023-01-23T03:45:32.084Z,103717.25
2023-01-23T03:48:04.335Z,103721.16
2023-01-23T03:50:36.356Z,103716.38
2023-01-23T03:53:08.328Z,103718.97
2023-01-23T03:55:40.301Z,103725.94
2023-01-23T03:58:30.886Z,103726.72
2023-01-23T04:01:07.644Z,103734.50
2023-01-23T04:03:39.643Z,103731.22
2023-01-23T04:06:11.758Z,103734.09
2023-01-23T04:08:43.819Z,103727.94
2023-01-23T04:11:15.884Z,103733.09
2023-01-23T04:13:47.850Z,103738.38
2023-01-23T04:16:30.159Z,103737.50
2023-01-23T04:19:02.109Z,103757.31
2023-01-23T04:21:34.110Z,103754.81
2023-01-23T04:24:06.760Z,103752.81
2023-01-23T04:27:00.486Z,103757.09
2023-01-23T04:29:33.347Z,103761.06
2023-01-23T04:32:05.567Z,103759.59
2023-01-23T04:34:37.589Z,103756.78
2023-01-23T04:37:09.651Z,103762.97
2023-01-23T04:39:41.663Z,103757.09
2023-01-23T04:42:13.688Z,103763.19
2023-01-23T04:44:45.783Z,103766.25
2023-01-23T04:47:17.773Z,103763.78
2023-01-23T04:49:49.740Z,103767.47
2023-01-23T04:52:21.779Z,103766.56
2023-01-23T04:54:53.809Z,103764.28
2023-01-23T04:57:26.505Z,103765.19
2023-01-23T05:00:00.349Z,103768.56
2023-01-23T05:02:32.686Z,103762.50
2023-01-23T05:05:07.238Z,103773.84
2023-01-23T05:07:39.783Z,103776.78
2023-01-23T05:10:12.912Z,103774.97
2023-01-23T05:12:45.149Z,103769.56
2023-01-23T05:15:17.458Z,103771.84
2023-01-23T05:17:49.873Z,103777.22
2023-01-23T05:20:23.638Z,103783.09
2023-01-23T05:22:57.646Z,103784.00
2023-01-23T05:25:30.459Z,103789.38
2023-01-23T05:28:02.650Z,103784.91
2023-01-23T05:30:34.800Z,103783.09
2023-01-23T05:33:06.863Z,103786.59
2023-01-23T05:35:39.867Z,103788.47
2023-01-23T05:38:13.388Z,103791.88
2023-01-23T05:40:45.368Z,103803.91
2023-01-23T05:43:17.667Z,103804.41
2023-01-23T05:45:49.842Z,103806.09
2023-01-23T05:48:21.864Z,103808.69
2023-01-23T05:50:53.840Z,103817.13
2023-01-23T05:53:25.819Z,103824.22
2023-01-23T05:55:57.773Z,103827.81
2023-01-23T05:58:29.786Z,103829.19
2023-01-23T06:01:05.527Z,103823.31
2023-01-23T06:03:37.517Z,103834.38
2023-01-23T06:06:09.558Z,103833.56
2023-01-23T06:08:41.790Z,103831.78
2023-01-23T06:11:13.781Z,103837.97
2023-01-23T06:13:45.778Z,103830.19
2023-01-23T06:16:17.795Z,103838.06
2023-01-23T06:18:49.815Z,103836.16
2023-01-23T06:21:21.964Z,103840.53
2023-01-23T06:23:53.951Z,103842.03
2023-01-23T06:26:26.042Z,103832.56
2023-01-23T06:28:58.027Z,103837.63
2023-01-23T06:34:31.836Z,103839.44
2023-01-23T06:37:04.016Z,103835.94
2023-01-23T06:39:35.979Z,103831.84
2023-01-23T06:42:10.333Z,103838.50
2023-01-23T06:44:43.439Z,103842.44
2023-01-23T06:47:16.758Z,103845.84
2023-01-23T06:49:48.757Z,103841.88
2023-01-23T06:52:22.433Z,103851.31
2023-01-23T06:54:54.789Z,103847.16
2023-01-23T06:57:26.727Z,103847.16
2023-01-23T06:59:59.361Z,103845.25
2023-01-23T07:05:57.080Z,103854.72
2023-01-23T07:08:33.086Z,103852.22
2023-01-23T07:11:07.091Z,103858.41
2023-01-23T07:13:39.417Z,103864.84
2023-01-23T07:16:11.495Z,103869.56
2023-01-23T07:18:43.466Z,103866.38
2023-01-23T07:21:16.319Z,103875.38
2023-01-23T07:23:48.296Z,103873.47
2023-01-23T07:26:20.386Z,103876.16
2023-01-23T07:28:52.574Z,103880.34
2023-01-23T07:31:24.632Z,103882.81
2023-01-23T07:33:56.715Z,103884.72
2023-01-23T07:36:29.833Z,103883.94
2023-01-23T07:39:01.791Z,103890.59
2023-01-23T07:41:33.810Z,103891.91
2023-01-23T07:44:06.701Z,103896.97
2023-01-23T07:46:38.821Z,103899.47
2023-01-23T07:52:33.674Z,103904.41
2023-01-23T07:55:06.532Z,103896.88
2023-01-23T07:57:38.469Z,103898.34
2023-01-23T08:00:11.190Z,103899.47
2023-01-23T08:02:43.436Z,103905.44
2023-01-23T08:05:15.556Z,103906.75
2023-01-23T08:07:47.532Z,103907.06
2023-01-23T08:10:29.855Z,103909.75
2023-01-23T08:13:01.834Z,103916.94
2023-01-23T08:15:33.949Z,103920.44
2023-01-23T08:18:08.848Z,103923.72
2023-01-23T08:21:00.825Z,103920.22
2023-01-23T08:23:34.693Z,103937.47
2023-01-23T08:26:08.879Z,103931.47
2023-01-23T08:28:42.782Z,103938.34
2023-01-23T08:31:15.109Z,103937.66
2023-01-23T08:33:59.438Z,103937.13
2023-01-23T08:36:31.892Z,103933.38
2023-01-23T08:39:04.615Z,103933.97
2023-01-23T08:41:36.633Z,103936.56
2023-01-23T08:44:08.631Z,103932.38
2023-01-23T08:46:40.692Z,103934.53
2023-01-23T08:49:13.379Z,103937.22
2023-01-23T08:51:45.478Z,103934.97
2023-01-23T08:54:17.425Z,103939.44
2023-01-23T08:56:51.222Z,103937.28
2023-01-23T08:59:23.352Z,103945.06
2023-01-23T09:05:36.977Z,103947.69
2023-01-23T09:08:08.995Z,103950.88
2023-01-23T09:10:41.233Z,103961.22
2023-01-23T09:13:13.317Z,103951.75
2023-01-23T09:15:45.948Z,103951.66
2023-01-23T09:18:18.525Z,103957.16
2023-01-23T09:20:51.300Z,103947.91
2023-01-23T09:23:24.376Z,103951.50
2023-01-23T09:26:02.856Z,103960.47
2023-01-23T09:28:40.201Z,103955.72
2023-01-23T09:31:14.590Z,103941.97
2023-01-23T09:33:49.246Z,103957.22
2023-01-23T09:36:33.706Z,103952.75
2023-01-23T09:39:13.171Z,103946.84
2023-01-23T09:41:46.370Z,103954.53
2023-01-23T09:44:39.793Z,103955.34
2023-01-23T09:47:35.719Z,103949.66
2023-01-23T09:50:18.837Z,103942.03
2023-01-23T09:53:13.839Z,103948.63
2023-01-23T09:56:02.420Z,103944.16
2023-01-23T09:59:29.615Z,103949.25
2023-01-23T10:02:01.949Z,103954.03
2023-01-23T10:04:34.101Z,103962.00
2023-01-23T10:07:47.063Z,103951.84
2023-01-23T10:10:45.706Z,103949.34
2023-01-23T10:13:31.761Z,103940.56
2023-01-23T10:16:38.060Z,103949.53
2023-01-23T10:19:35.432Z,103948.84
2023-01-23T10:22:33.035Z,103954.63
2023-01-23T10:25:27.331Z,103945.75
2023-01-23T10:28:17.425Z,103947.94
2023-01-23T10:30:56.493Z,103956.81
2023-01-23T10:33:49.075Z,103950.25
2023-01-23T10:36:47.850Z,103946.56
2023-01-23T10:40:12.732Z,103944.16
2023-01-23T10:42:44.717Z,103949.25
2023-01-23T10:45:19.898Z,103950.34
2023-01-23T10:47:55.370Z,103957.13
2023-01-23T10:50:40.261Z,103952.75
2023-01-23T10:53:21.124Z,103955.34
2023-01-23T10:55:58.135Z,103949.94
2023-01-23T10:58:37.998Z,103955.09
2023-01-23T11:01:32.424Z,103960.97
2023-01-23T11:04:21.713Z,103951.78
2023-01-23T11:07:25.828Z,103948.59
2023-01-23T11:10:23.434Z,103954.16
2023-01-23T11:12:56.198Z,103966.44
2023-01-23T11:15:32.458Z,103968.94
2023-01-23T11:19:38.830Z,103964.75
2023-01-23T11:22:41.071Z,103967.72
2023-01-23T11:26:09.083Z,103968.53
2023-01-23T11:28:50.153Z,103966.31
2023-01-23T11:31:27.141Z,103960.63
2023-01-23T11:34:23.616Z,103961.94
2023-01-23T11:37:10.931Z,103964.34
2023-01-23T11:39:47.139Z,103963.78
2023-01-23T11:42:19.771Z,103960.88
2023-01-23T11:44:52.413Z,103969.56
2023-01-23T11:48:12.054Z,103969.75
2023-01-23T11:50:55.640Z,103972.53
2023-01-23T11:53:52.355Z,103977.91
2023-01-23T11:56:47.793Z,103974.34
2023-01-23T11:59:56.462Z,103973.34
2023-01-23T12:02:51.167Z,103968.72
2023-01-23T12:05:50.084Z,103974.72
2023-01-23T12:08:47.742Z,103974.63
2023-01-23T12:11:22.499Z,103973.91
2023-01-23T12:18:08.118Z,103968.84
2023-01-23T12:21:03.896Z,103967.34
2023-01-23T12:23:47.688Z,103975.94
2023-01-23T12:26:22.796Z,103963.75
2023-01-23T12:29:19.526Z,103967.84
2023-01-23T12:32:49.646Z,103972.16
2023-01-23T12:36:33.230Z,103964.44
2023-01-23T12:39:53.679Z,103970.44
2023-01-23T12:42:51.973Z,103960.88
2023-01-23T12:45:30.360Z,103967.94
2023-01-23T12:48:14.976Z,103963.03
2023-01-23T12:51:02.264Z,103966.53
2023-01-23T12:53:38.723Z,103964.25
2023-01-23T12:56:19.237Z,103961.66
2023-01-23T12:59:15.891Z,103954.00
2023-01-23T13:02:00.334Z,103949.00
2023-01-23T13:05:07.027Z,103953.59
2023-01-23T13:08:05.636Z,103953.59
2023-01-23T13:11:22.153Z,103950.38
2023-01-23T13:13:54.398Z,103963.56
2023-01-23T13:17:02.925Z,103962.94
2023-01-23T13:20:03.287Z,103953.75
2023-01-23T13:22:38.549Z,103953.66
2023-01-23T13:25:18.818Z,103954.34
2023-01-23T13:28:01.982Z,103956.41
2023-01-23T13:30:36.736Z,103956.72
2023-01-23T13:33:14.989Z,103965.50
2023-01-23T13:35:49.947Z,103962.69
2023-01-23T13:38:21.809Z,103966.00
2023-01-23T13:41:05.682Z,103971.38
2023-01-23T13:44:22.954Z,103969.38
2023-01-23T14:20:28.388Z,103976.00
2023-01-23T14:23:00.436Z,103979.00
2023-01-23T14:25:33.249Z,103982.13
2023-01-23T14:28:06.393Z,103978.03
2023-01-23T14:30:40.933Z,103976.03
2023-01-23T14:33:18.182Z,103975.75
2023-01-23T14:35:51.373Z,103975.75
2023-01-23T14:38:33.384Z,103973.06
2023-01-23T14:41:08.622Z,103983.31
2023-01-23T14:43:42.964Z,103973.28
2023-01-23T14:46:21.486Z,103982.47
2023-01-23T14:48:55.985Z,103981.69
2023-01-23T14:51:31.854Z,103986.97
2023-01-23T14:54:29.690Z,103978.38
2023-01-23T14:57:05.835Z,103970.50
2023-01-23T14:59:43.048Z,103976.28
2023-01-23T15:02:34.295Z,103968.31
2023-01-23T15:05:10.207Z,103971.19
2023-01-23T15:07:58.507Z,103958.44
2023-01-23T15:10:47.677Z,103962.13
2023-01-23T15:13:36.361Z,103958.81
2023-01-23T15:16:37.969Z,103954.84
2023-01-23T15:19:21.346Z,103947.25
2023-01-23T15:22:20.272Z,103946.44
2023-01-23T15:24:52.469Z,103938.56
2023-01-23T15:27:34.274Z,103944.34
2023-01-23T15:30:39.773Z,103950.34
2023-01-23T15:33:45.312Z,103937.16
2023-01-23T15:36:31.192Z,103934.19
2023-01-23T15:39:03.782Z,103929.28
2023-01-23T15:41:45.099Z,103931.78
2023-01-23T15:44:21.024Z,103938.66
2023-01-23T15:46:52.990Z,103929.06
2023-01-23T15:49:26.525Z,103932.16
2023-01-23T15:52:16.475Z,103935.84
2023-01-23T15:54:52.268Z,103940.34
2023-01-23T15:57:25.323Z,103939.75
2023-01-23T15:59:57.351Z,103942.75
2023-01-23T16:02:31.543Z,103936.44
2023-01-23T16:05:05.004Z,103940.94
2023-01-23T16:07:43.098Z,103944.63
2023-01-23T16:10:26.912Z,103950.13
2023-01-23T16:12:59.060Z,103958.00
2023-01-23T16:15:34.500Z,103959.69
2023-01-23T16:18:08.045Z,103951.13
2023-01-23T16:20:45.873Z,103948.22
2023-01-23T16:23:24.864Z,103950.13
2023-01-23T16:25:57.010Z,103952.91
2023-01-23T16:28:30.187Z,103975.16
2023-01-23T16:31:02.239Z,103966.69
2023-01-23T16:33:34.368Z,103977.06
2023-01-23T16:36:07.888Z,103968.28
2023-01-23T16:38:40.202Z,103969.38
2023-01-23T16:41:15.738Z,103974.66
2023-01-23T16:43:48.300Z,103974.06
2023-01-23T16:46:20.582Z,103969.69
2023-01-23T16:48:58.013Z,103972.28
2023-01-23T16:51:30.304Z,103972.88
2023-01-23T16:54:11.313Z,103987.53
2023-01-23T16:56:54.496Z,103985.63
2023-01-23T16:59:32.634Z,103983.25
2023-01-23T17:02:22.528Z,103983.13
2023-01-23T17:04:54.872Z,103987.00
2023-01-23T17:07:26.900Z,103994.69
2023-01-23T17:10:45.333Z,104005.84
2023-01-23T17:13:20.386Z,103998.38
2023-01-23T17:15:57.760Z,103998.50
2023-01-23T17:18:33.894Z,103997.91
2023-01-23T17:21:06.318Z,104000.59
2023-01-23T17:23:38.270Z,104003.28
2023-01-23T17:26:17.862Z,103997.09
2023-01-23T17:28:49.873Z,103997.59
2023-01-23T17:31:28.575Z,104000.38
2023-01-23T17:34:02.865Z,104006.28
2023-01-23T17:36:35.953Z,104014.94
2023-01-23T17:39:11.125Z,104019.53
2023-01-23T17:41:43.657Z,104022.25
2023-01-23T17:44:15.694Z,104019.44
2023-01-23T17:46:47.976Z,104018.53
2023-01-23T17:49:31.356Z,104017.53
2023-01-23T17:52:03.439Z,104022.81
2023-01-23T17:54:36.959Z,104018.22
2023-01-23T17:57:19.865Z,104037.28
2023-01-23T17:59:55.504Z,104029.50
2023-01-23T18:02:29.130Z,104027.28
2023-01-23T18:05:01.220Z,104033.69
2023-01-23T18:07:48.572Z,104028.50
2023-01-23T18:10:28.585Z,104037.38
2023-01-23T18:14:08.486Z,104025.53
2023-01-23T18:16:45.456Z,104023.91
2023-01-23T18:19:27.573Z,104030.19
2023-01-23T18:22:00.090Z,104031.19
2023-01-23T18:24:33.492Z,104029.50
2023-01-23T18:27:24.647Z,104037.38
2023-01-23T18:30:43.365Z,104038.28
2023-01-23T18:33:56.423Z,104037.50
2023-01-23T18:37:35.253Z,104039.78
2023-01-23T18:40:46.116Z,104044.84
2023-01-23T18:43:40.939Z,104040.56
2023-01-23T18:46:17.067Z,104039.78
2023-01-23T18:48:49.793Z,104035.38
2023-01-23T18:51:43.347Z,104045.66
2023-01-23T18:54:20.776Z,104042.16
2023-01-23T18:57:13.193Z,104044.16
2023-01-23T19:00:24.686Z,104057.03
2023-01-23T19:03:04.356Z,104053.63
2023-01-23T19:05:36.709Z,104052.03
2023-01-23T19:08:35.558Z,104062.91
2023-01-23T19:11:31.818Z,104060.19
2023-01-23T19:14:41.548Z,104061.88
2023-01-23T19:17:31.532Z,104070.66
2023-01-23T19:20:29.740Z,104068.97
2023-01-23T19:23:07.852Z,104071.47
2023-01-23T19:25:40.095Z,104073.06
2023-01-23T19:28:12.551Z,104067.97
2023-01-23T19:30:45.037Z,104062.09
2023-01-23T19:33:20.568Z,104065.47
2023-01-23T19:35:56.589Z,104064.59
2023-01-23T19:38:28.879Z,104061.09
2023-01-23T19:41:00.911Z,104058.94
2023-01-23T19:43:33.091Z,104060.53
2023-01-23T19:46:05.420Z,104064.59
2023-01-23T19:48:41.764Z,104062.69
2023-01-23T19:51:19.919Z,104068.09
2023-01-23T19:53:52.150Z,104065.19
2023-01-23T19:56:27.648Z,104072.28
2023-01-23T19:58:59.825Z,104064.72
2023-01-23T20:01:48.776Z,104067.50
2023-01-23T20:04:28.853Z,104062.81
2023-01-23T20:07:01.139Z,104063.50
2023-01-23T20:09:33.455Z,104067.88
2023-01-23T20:12:06.187Z,104072.38
2023-01-23T20:14:38.349Z,104078.25
2023-01-23T20:17:17.306Z,104075.88
2023-01-23T20:19:50.045Z,104074.28
2023-01-23T20:22:22.099Z,104077.09
2023-01-23T20:24:57.182Z,104079.69
2023-01-23T20:27:30.118Z,104080.59
2023-01-23T20:30:07.615Z,104081.28
2023-01-23T20:32:44.077Z,104074.41
2023-01-23T20:35:16.596Z,104075.88
2023-01-23T20:37:59.413Z,104071.47
2023-01-23T20:41:09.607Z,104077.34
2023-01-23T20:43:52.159Z,104078.03
2023-01-23T20:46:30.677Z,104070.75
2023-01-23T20:49:03.015Z,104067.69
2023-01-23T20:51:45.752Z,104069.06
2023-01-23T20:55:30.387Z,104072.53
2023-01-23T20:58:25.631Z,104071.97
2023-01-23T21:00:58.131Z,104077.47
2023-01-23T21:03:33.390Z,104070.97
2023-01-23T21:06:26.662Z,104070.84
2023-01-23T21:15:07.502Z,104087.44
2023-01-23T21:17:39.466Z,104083.16
2023-01-23T21:20:12.160Z,104082.59
2023-01-23T21:22:44.157Z,104077.63
2023-01-23T21:25:16.256Z,104073.44
2023-01-23T21:27:48.248Z,104080.78
2023-01-23T21:30:21.324Z,104079.09
2023-01-23T21:32:55.369Z,104080.56
2023-01-23T21:35:27.787Z,104081.47
2023-01-23T21:40:51.065Z,104081.91
2023-01-23T21:43:29.978Z,104081.91
2023-01-23T21:46:02.069Z,104084.50
2023-01-23T21:48:34.852Z,104079.63
2023-01-23T21:51:16.950Z,104083.34
2023-01-23T21:53:50.763Z,104084.91
2023-01-23T21:56:24.234Z,104088.19
2023-01-23T21:58:56.308Z,104091.25
2023-01-23T22:01:42.335Z,104099.03
2023-01-23T22:04:24.075Z,104106.13
2023-01-23T22:06:56.915Z,104111.41
2023-01-23T22:09:30.377Z,104114.13
2023-01-23T22:12:02.461Z,104109.84
2023-01-23T22:14:34.477Z,104112.31
2023-01-23T22:17:08.077Z,104118.28
2023-01-23T22:19:40.071Z,104118.50
2023-01-23T22:22:13.505Z,104115.69
2023-01-23T22:24:45.555Z,104129.22
2023-01-23T22:27:30.875Z,104124.06
2023-01-23T22:30:02.884Z,104122.47
2023-01-23T22:35:39.976Z,104125.16
2023-01-23T22:38:14.935Z,104131.03
2023-01-23T22:41:00.035Z,104132.84
2023-01-23T22:43:33.628Z,104136.22
2023-01-23T22:46:15.767Z,104138.00
2023-01-23T22:48:47.789Z,104136.22
2023-01-23T22:51:25.974Z,104137.13
2023-01-23T22:53:59.379Z,104133.94
2023-01-23T22:56:32.124Z,104134.84
2023-01-23T22:59:04.237Z,104121.88
2023-01-23T23:02:06.286Z,104114.00
2023-01-23T23:04:38.807Z,104113.78
2023-01-23T23:07:12.728Z,104116.06
2023-01-23T23:09:45.521Z,104112.69
2023-01-23T23:12:17.591Z,104119.44
2023-01-23T23:14:49.684Z,104115.75
2023-01-23T23:17:21.843Z,104108.53
2023-01-23T23:19:53.958Z,104107.19
2023-01-23T23:22:25.917Z,104110.00
2023-01-23T23:24:58.257Z,104115.53
2023-01-23T23:27:30.383Z,104112.81
2023-01-23T23:30:02.477Z,104115.41
2023-01-23T23:32:34.458Z,104112.03
2023-01-23T23:35:08.146Z,104108.88
2023-01-23T23:37:40.144Z,104109.06
2023-01-23T23:40:13.934Z,104100.63
2023-01-23T23:42:46.064Z,104105.81
2023-01-23T23:45:18.311Z,104109.97
2023-01-23T23:47:50.899Z,104113.38
2023-01-23T23:50:23.643Z,104111.66
2023-01-23T23:52:55.854Z,104120.56
2023-01-23T23:55:28.129Z,104117.28
2023-01-23T23:58:00.136Z,104120.78
